createdAt,value
2019-03-17T00:00:43.604Z,105.45
2019-03-17T00:03:14.318Z,96.97
2019-03-17T00:05:45.193Z,101.33
2019-03-17T00:08:16.052Z,99.62
2019-03-17T00:10:47.062Z,103.10
2019-03-17T00:13:18.025Z,101.55
2019-03-17T00:15:49.262Z,106.85
2019-03-17T00:18:19.997Z,105.10
2019-03-17T00:20:50.836Z,107.67
2019-03-17T00:23:21.737Z,108.40
2019-03-17T00:25:52.511Z,108.72
2019-03-17T00:28:23.249Z,113.88
2019-03-17T00:30:54.098Z,112.65
2019-03-17T00:33:24.778Z,110.50
2019-03-17T00:35:55.551Z,113.95
2019-03-17T00:38:26.460Z,112.30
2019-03-17T00:40:57.234Z,111.88
2019-03-17T00:43:28.789Z,98.67
2019-03-17T00:45:59.791Z,104.47
2019-03-17T00:48:30.772Z,105.03
2019-03-17T00:51:01.712Z,128.80
2019-03-17T00:53:32.614Z,127.02
2019-03-17T00:56:03.345Z,126.22
2019-03-17T00:58:34.327Z,132.22
2019-03-17T01:01:05.437Z,116.97
2019-03-17T01:03:36.226Z,121.00
2019-03-17T01:06:56.006Z,113.20
2019-03-17T01:09:26.631Z,102.02
2019-03-17T01:11:57.767Z,103.30
2019-03-17T01:14:28.680Z,98.70
2019-03-17T01:16:59.436Z,103.72
2019-03-17T01:19:30.172Z,94.32
2019-03-17T01:22:01.079Z,90.53
2019-03-17T01:24:31.851Z,88.30
2019-03-17T01:27:02.587Z,95.72
2019-03-17T01:29:33.484Z,95.07
2019-03-17T01:32:04.230Z,97.60
2019-03-17T01:34:34.999Z,95.57
2019-03-17T01:37:05.906Z,81.02
2019-03-17T01:39:36.676Z,76.55
2019-03-17T01:42:07.405Z,80.20
2019-03-17T01:44:40.732Z,72.78
2019-03-17T01:47:11.764Z,76.85
2019-03-17T01:49:42.606Z,75.95
2019-03-17T01:52:13.651Z,73.85
2019-03-17T01:54:44.458Z,62.15
2019-03-17T01:57:15.309Z,74.05
2019-03-17T01:59:46.215Z,73.22
2019-03-17T02:02:16.944Z,72.32
2019-03-17T02:05:42.410Z,73.37
2019-03-17T02:08:13.242Z,74.75
2019-03-17T02:10:43.979Z,74.35
2019-03-17T02:13:15.288Z,71.42
2019-03-17T02:15:46.155Z,74.80
2019-03-17T02:18:17.093Z,65.00
2019-03-17T02:20:48.255Z,62.95
2019-03-17T02:23:19.086Z,59.95
2019-03-17T02:25:49.872Z,61.77
2019-03-17T02:28:28.908Z,57.48
2019-03-17T02:30:59.684Z,50.98
2019-03-17T02:33:30.435Z,47.10
2019-03-17T02:36:01.372Z,45.38
2019-03-17T02:38:32.415Z,45.50
2019-03-17T02:41:03.269Z,44.38
2019-03-17T02:43:34.240Z,40.80
2019-03-17T02:46:05.304Z,43.35
2019-03-17T02:48:36.246Z,44.27
2019-03-17T02:51:07.369Z,46.05
2019-03-17T02:53:58.355Z,45.00
2019-03-17T02:56:29.347Z,42.90
2019-03-17T02:59:00.193Z,43.98
2019-03-17T03:01:30.939Z,40.55
2019-03-17T03:04:02.977Z,48.05
2019-03-17T03:06:33.965Z,43.85
2019-03-17T03:09:06.432Z,41.35
2019-03-17T03:11:37.385Z,45.03
2019-03-17T03:14:35.774Z,43.70
2019-03-17T03:17:24.057Z,43.20
2019-03-17T03:19:54.823Z,45.15
2019-03-17T03:22:25.561Z,42.20
2019-03-17T03:25:53.868Z,43.95
2019-03-17T03:28:24.701Z,38.92
2019-03-17T03:30:55.549Z,39.63
2019-03-17T03:34:08.637Z,35.80
2019-03-17T03:36:39.514Z,38.75
2019-03-17T03:39:10.251Z,37.95
2019-03-17T03:41:41.069Z,35.45
2019-03-17T03:45:03.424Z,36.10
2019-03-17T03:47:34.780Z,37.13
2019-03-17T03:50:06.932Z,38.50
2019-03-17T03:52:37.674Z,35.28
2019-03-17T03:55:09.384Z,36.88
2019-03-17T03:57:41.343Z,36.55
2019-03-17T04:00:16.279Z,37.45
2019-03-17T04:02:47.334Z,37.03
2019-03-17T04:05:54.841Z,38.30
2019-03-17T04:08:25.885Z,33.75
2019-03-17T04:11:09.965Z,35.13
2019-03-17T04:14:08.319Z,34.50
2019-03-17T04:16:39.610Z,33.88
2019-03-17T04:19:10.454Z,34.33
2019-03-17T04:21:41.448Z,34.75
2019-03-17T04:24:13.905Z,34.48
2019-03-17T04:26:58.877Z,32.93
2019-03-17T04:29:29.608Z,32.98
2019-03-17T04:32:14.594Z,32.33
2019-03-17T04:35:33.496Z,32.55
2019-03-17T04:38:04.490Z,35.03
2019-03-17T04:40:35.271Z,34.90
2019-03-17T04:43:06.000Z,34.03
2019-03-17T04:45:37.006Z,34.03
2019-03-17T04:48:08.041Z,33.15
2019-03-17T04:50:38.772Z,33.53
2019-03-17T04:53:09.680Z,32.83
2019-03-17T04:55:55.037Z,33.35
2019-03-17T04:58:25.947Z,32.73
2019-03-17T05:00:56.710Z,33.73
2019-03-17T05:03:27.459Z,33.20
2019-03-17T05:06:22.123Z,34.27
2019-03-17T05:08:52.889Z,32.58
2019-03-17T05:11:23.720Z,34.23
2019-03-17T05:14:31.022Z,32.17
2019-03-17T05:17:02.229Z,31.82
2019-03-17T05:19:33.008Z,32.73
2019-03-17T05:22:03.861Z,32.38
2019-03-17T05:28:03.133Z,31.37
2019-03-17T05:30:33.905Z,29.18
2019-03-17T05:33:04.646Z,29.65
2019-03-17T05:35:38.192Z,32.48
2019-03-17T05:38:08.946Z,32.20
2019-03-17T05:40:39.677Z,29.87
2019-03-17T05:43:10.860Z,29.35
2019-03-17T05:45:41.694Z,30.75
2019-03-17T05:48:12.596Z,34.13
2019-03-17T05:50:44.052Z,35.08
2019-03-17T05:53:14.920Z,31.02
2019-03-17T05:55:48.477Z,31.15
2019-03-17T05:58:19.224Z,32.78
2019-03-17T06:00:50.106Z,33.65
2019-03-17T06:03:21.060Z,35.33
2019-03-17T06:05:51.737Z,34.15
2019-03-17T06:08:22.481Z,32.63
2019-03-17T06:10:53.577Z,35.48
2019-03-17T06:13:24.253Z,35.30
2019-03-17T06:16:14.384Z,34.35
2019-03-17T06:18:45.606Z,36.42
2019-03-17T06:21:16.467Z,34.95
2019-03-17T06:23:47.499Z,32.42
2019-03-17T06:26:18.225Z,29.80
2019-03-17T06:28:48.949Z,32.03
2019-03-17T06:31:19.855Z,32.73
2019-03-17T06:33:50.968Z,30.97
2019-03-17T06:36:21.806Z,32.45
2019-03-17T06:38:52.717Z,30.17
2019-03-17T06:41:23.450Z,29.27
2019-03-17T06:43:54.226Z,29.05
2019-03-17T06:46:25.216Z,30.80
2019-03-17T06:48:55.996Z,30.97
2019-03-17T06:51:27.149Z,28.98
2019-03-17T06:53:58.147Z,30.97
2019-03-17T06:56:28.918Z,29.25
2019-03-17T06:58:59.757Z,30.65
2019-03-17T07:01:30.658Z,30.23
2019-03-17T07:04:01.330Z,29.37
2019-03-17T07:06:32.106Z,27.17
2019-03-17T07:09:03.172Z,28.20
2019-03-17T07:11:34.011Z,27.70
2019-03-17T07:14:04.888Z,26.33
2019-03-17T07:16:35.794Z,27.45
2019-03-17T07:19:06.935Z,28.83
2019-03-17T07:21:37.717Z,26.77
2019-03-17T07:24:08.629Z,26.82
2019-03-17T07:26:39.490Z,25.70
2019-03-17T07:29:10.197Z,26.05
2019-03-17T07:31:41.204Z,26.00
2019-03-17T07:34:11.973Z,24.63
2019-03-17T07:36:42.797Z,26.10
2019-03-17T07:39:13.759Z,25.90
2019-03-17T07:41:44.592Z,25.20
2019-03-17T07:44:15.375Z,24.37
2019-03-17T07:46:46.387Z,26.95
2019-03-17T07:49:17.212Z,25.30
2019-03-17T07:51:47.953Z,25.40
2019-03-17T07:54:19.246Z,25.70
2019-03-17T07:56:50.226Z,25.02
2019-03-17T07:59:22.513Z,26.48
2019-03-17T08:01:53.277Z,24.67
2019-03-17T08:04:26.129Z,26.05
2019-03-17T08:06:56.752Z,24.15
2019-03-17T08:09:27.481Z,24.95
2019-03-17T08:11:58.430Z,25.27
2019-03-17T08:14:29.132Z,26.12
2019-03-17T08:16:59.893Z,24.47
2019-03-17T08:19:30.726Z,26.82
2019-03-17T08:22:01.919Z,25.65
2019-03-17T08:24:32.750Z,26.93
2019-03-17T08:27:03.635Z,23.95
2019-03-17T08:29:34.494Z,25.27
2019-03-17T08:32:05.394Z,23.85
2019-03-17T08:34:36.377Z,26.52
2019-03-17T08:37:07.147Z,26.23
2019-03-17T08:39:37.875Z,25.57
2019-03-17T08:42:08.800Z,25.20
2019-03-17T08:44:52.977Z,24.18
2019-03-17T08:47:23.932Z,24.60
2019-03-17T08:49:54.645Z,22.87
2019-03-17T08:52:25.278Z,24.10
2019-03-17T08:54:58.293Z,23.95
2019-03-17T08:57:29.443Z,23.73
2019-03-17T09:00:01.862Z,23.55
2019-03-17T09:02:32.635Z,23.40
2019-03-17T09:05:04.478Z,23.73
2019-03-17T09:07:35.395Z,23.90
2019-03-17T09:10:08.102Z,23.02
2019-03-17T09:12:38.810Z,25.17
2019-03-17T09:15:09.797Z,23.70
2019-03-17T09:17:40.588Z,22.48
2019-03-17T09:20:17.843Z,24.18
2019-03-17T09:22:48.942Z,23.38
2019-03-17T09:25:28.217Z,23.55
2019-03-17T09:27:59.097Z,22.93
2019-03-17T09:30:29.819Z,22.87
2019-03-17T09:33:01.027Z,23.45
2019-03-17T09:35:31.907Z,22.98
2019-03-17T09:38:02.680Z,23.98
2019-03-17T09:40:33.581Z,22.20
2019-03-17T09:43:04.464Z,21.55
2019-03-17T09:45:35.207Z,22.48
2019-03-17T09:48:15.250Z,23.25
2019-03-17T09:50:46.113Z,23.30
2019-03-17T09:53:16.937Z,24.30
2019-03-17T09:56:24.449Z,22.82
2019-03-17T09:59:13.506Z,22.62
2019-03-17T10:01:44.504Z,23.10
2019-03-17T10:04:15.260Z,23.35
2019-03-17T10:06:46.000Z,23.95
2019-03-17T10:09:16.909Z,24.72
2019-03-17T10:11:47.776Z,23.27
2019-03-17T10:14:18.487Z,24.12
2019-03-17T10:16:49.529Z,24.40
2019-03-17T10:19:20.376Z,24.25
2019-03-17T10:21:51.353Z,25.35
2019-03-17T10:24:22.364Z,25.52
2019-03-17T10:26:53.334Z,24.98
2019-03-17T10:29:24.377Z,23.95
2019-03-17T10:31:55.627Z,25.05
2019-03-17T10:34:30.358Z,25.35
2019-03-17T10:37:01.239Z,25.27
2019-03-17T10:39:31.916Z,26.12
2019-03-17T10:42:02.647Z,25.80
2019-03-17T10:44:33.556Z,26.60
2019-03-17T10:47:04.300Z,27.58
2019-03-17T10:49:35.065Z,26.25
2019-03-17T10:52:05.973Z,27.35
2019-03-17T10:54:36.796Z,28.42
2019-03-17T10:57:07.535Z,27.30
2019-03-17T10:59:38.780Z,26.90
2019-03-17T11:02:09.567Z,27.25
2019-03-17T11:04:40.306Z,27.07
2019-03-17T11:07:11.194Z,28.05
2019-03-17T11:09:42.072Z,28.47
2019-03-17T11:12:12.912Z,28.75
2019-03-17T11:14:43.833Z,28.70
2019-03-17T11:17:14.587Z,28.83
2019-03-17T11:19:45.321Z,27.52
2019-03-17T11:22:16.125Z,27.50
2019-03-17T11:24:47.363Z,29.48
2019-03-17T11:27:18.140Z,30.12
2019-03-17T11:29:49.017Z,28.77
2019-03-17T11:32:19.993Z,29.67
2019-03-17T11:34:50.833Z,29.10
2019-03-17T11:37:23.672Z,29.23
2019-03-17T11:39:53.978Z,30.48
2019-03-17T11:42:24.821Z,31.70
2019-03-17T11:44:55.719Z,33.18
2019-03-17T11:47:26.494Z,32.42
2019-03-17T11:49:57.182Z,32.33
2019-03-17T11:52:28.124Z,32.80
2019-03-17T11:54:58.850Z,30.85
2019-03-17T11:57:29.636Z,31.30
2019-03-17T12:00:00.546Z,31.27
2019-03-17T12:02:31.899Z,32.13
2019-03-17T12:05:02.716Z,33.23
2019-03-17T12:07:33.622Z,32.67
2019-03-17T12:10:04.532Z,34.65
2019-03-17T12:12:35.274Z,36.83
2019-03-17T12:15:07.821Z,33.48
2019-03-17T12:17:38.599Z,33.95
2019-03-17T12:20:12.056Z,34.13
2019-03-17T12:22:42.749Z,34.35
2019-03-17T12:25:17.737Z,32.15
2019-03-17T12:27:49.207Z,35.10
2019-03-17T12:30:27.663Z,32.58
2019-03-17T12:32:59.431Z,33.48
2019-03-17T12:35:50.858Z,31.73
2019-03-17T12:38:22.132Z,32.53
2019-03-17T12:40:53.655Z,32.38
2019-03-17T12:43:27.234Z,32.25
2019-03-17T12:45:58.575Z,31.82
2019-03-17T12:48:32.442Z,31.12
2019-03-17T12:51:03.013Z,29.35
2019-03-17T12:53:33.738Z,29.80
2019-03-17T12:56:04.570Z,28.38
2019-03-17T12:58:35.198Z,29.57
2019-03-17T13:01:05.953Z,29.92
2019-03-17T13:03:37.151Z,29.18
2019-03-17T13:06:07.865Z,30.60
2019-03-17T13:08:38.817Z,29.98
2019-03-17T13:11:09.571Z,30.15
2019-03-17T13:13:40.408Z,31.65
2019-03-17T13:16:11.111Z,28.95
2019-03-17T13:18:41.983Z,29.25
2019-03-17T13:21:12.752Z,29.37
2019-03-17T13:23:43.464Z,28.32
2019-03-17T13:26:14.298Z,28.95
2019-03-17T13:28:44.712Z,29.32
2019-03-17T13:31:15.140Z,29.65
2019-03-17T13:33:45.750Z,30.00
2019-03-17T13:36:16.180Z,28.85
2019-03-17T13:38:46.621Z,28.70
2019-03-17T13:41:17.486Z,28.65
2019-03-17T13:43:49.342Z,28.90
2019-03-17T13:46:19.953Z,29.63
2019-03-17T13:48:50.922Z,29.23
2019-03-17T13:51:21.604Z,27.67
2019-03-17T13:54:11.684Z,28.05
2019-03-17T13:56:42.483Z,28.52
2019-03-17T13:59:13.239Z,28.42
2019-03-17T14:01:45.440Z,26.42
2019-03-17T14:04:17.877Z,28.00
2019-03-17T14:06:49.735Z,29.60
2019-03-17T14:09:20.508Z,29.72
2019-03-17T14:11:51.151Z,30.32
2019-03-17T14:14:21.933Z,31.15
2019-03-17T14:16:52.597Z,30.68
2019-03-17T14:19:23.349Z,30.37
2019-03-17T14:21:54.345Z,30.25
2019-03-17T14:24:28.037Z,31.12
2019-03-17T14:26:58.798Z,29.12
2019-03-17T14:29:29.931Z,29.30
2019-03-17T14:32:00.909Z,28.60
2019-03-17T14:34:31.737Z,28.90
2019-03-17T14:37:02.617Z,29.32
2019-03-17T14:39:33.272Z,29.87
2019-03-17T14:42:03.909Z,28.05
2019-03-17T14:44:34.947Z,28.00
2019-03-17T14:47:05.998Z,29.35
2019-03-17T14:49:38.728Z,28.45
2019-03-17T14:52:10.321Z,28.60
2019-03-17T14:54:40.988Z,28.98
2019-03-17T14:57:11.667Z,29.18
2019-03-17T14:59:42.640Z,28.85
2019-03-17T15:02:13.426Z,28.87
2019-03-17T15:04:44.420Z,29.20
2019-03-17T15:07:16.011Z,28.67
2019-03-17T15:09:49.067Z,28.92
2019-03-17T15:12:20.018Z,30.40
2019-03-17T15:14:50.841Z,32.65
2019-03-17T15:17:23.318Z,30.32
2019-03-17T15:19:54.104Z,29.25
2019-03-17T15:22:57.946Z,29.80
2019-03-17T15:25:45.928Z,31.17
2019-03-17T15:28:18.151Z,31.48
2019-03-17T15:31:05.561Z,29.82
2019-03-17T15:33:22.543Z,31.60
2019-03-17T15:35:55.218Z,31.60
2019-03-17T15:38:27.671Z,31.82
2019-03-17T15:41:03.044Z,30.80
2019-03-17T15:43:33.899Z,32.28
2019-03-17T15:46:04.676Z,32.33
2019-03-17T15:48:35.342Z,31.35
2019-03-17T15:51:19.251Z,32.13
2019-03-17T15:53:40.908Z,32.08
2019-03-17T15:56:12.627Z,31.02
2019-03-17T15:58:47.976Z,31.00
2019-03-17T16:01:21.457Z,30.60
2019-03-17T16:03:52.343Z,30.85
2019-03-17T16:06:23.189Z,32.30
2019-03-17T16:08:53.841Z,31.87
2019-03-17T16:11:30.936Z,32.17
2019-03-17T16:13:56.742Z,30.90
2019-03-17T16:16:31.142Z,32.88
2019-03-17T16:19:01.985Z,31.37
2019-03-17T16:21:32.550Z,33.13
2019-03-17T16:24:03.977Z,31.90
2019-03-17T16:26:34.566Z,32.67
2019-03-17T16:29:05.437Z,32.80
2019-03-17T16:31:36.093Z,32.80
2019-03-17T16:34:06.824Z,33.53
2019-03-17T16:36:37.720Z,32.15
2019-03-17T16:39:09.159Z,32.03
2019-03-17T16:41:43.631Z,32.95
2019-03-17T16:44:12.117Z,34.03
2019-03-17T16:49:34.388Z,33.05
2019-03-17T16:52:04.983Z,32.63
2019-03-17T16:54:35.613Z,32.98
2019-03-17T16:57:26.758Z,34.63
2019-03-17T16:59:57.445Z,34.63
2019-03-17T17:02:28.177Z,33.35
2019-03-17T17:04:59.275Z,33.50
2019-03-17T17:07:30.215Z,34.43
2019-03-17T17:10:00.869Z,34.35
2019-03-17T17:12:31.922Z,34.08
2019-03-17T17:15:02.616Z,34.45
2019-03-17T17:17:33.243Z,35.08
2019-03-17T17:20:04.134Z,36.20
2019-03-17T17:22:34.807Z,35.40
2019-03-17T17:25:06.813Z,34.98
2019-03-17T17:27:37.733Z,35.80
2019-03-17T17:30:13.711Z,37.05
2019-03-17T17:32:44.629Z,35.78
2019-03-17T17:35:15.819Z,36.33
2019-03-17T17:37:46.537Z,35.98
2019-03-17T17:40:43.634Z,35.20
2019-03-17T17:43:14.345Z,35.65
2019-03-17T17:45:46.581Z,36.40
2019-03-17T17:48:17.362Z,36.98
2019-03-17T17:50:47.935Z,37.75
2019-03-17T17:53:18.658Z,38.02
2019-03-17T17:55:50.332Z,39.08
2019-03-17T17:58:21.034Z,38.80
2019-03-17T18:00:51.839Z,38.80
2019-03-17T18:03:22.710Z,37.25
2019-03-17T18:05:54.781Z,38.48
2019-03-17T18:08:25.832Z,37.15
2019-03-17T18:10:56.726Z,37.65
2019-03-17T18:13:27.290Z,38.55
2019-03-17T18:15:58.017Z,37.58
2019-03-17T18:18:28.991Z,38.70
2019-03-17T18:21:06.367Z,39.75
2019-03-17T18:23:37.265Z,37.83
2019-03-17T18:26:07.947Z,38.05
2019-03-17T18:28:42.142Z,39.73
2019-03-17T18:34:04.698Z,38.83
2019-03-17T18:36:35.242Z,39.23
2019-03-17T18:39:08.211Z,38.88
2019-03-17T18:41:41.139Z,40.17
2019-03-17T18:44:11.829Z,39.13
2019-03-17T18:46:42.467Z,38.90
2019-03-17T18:49:13.365Z,39.70
2019-03-17T18:51:45.059Z,40.98
2019-03-17T18:54:15.833Z,39.08
2019-03-17T18:56:47.306Z,40.80
2019-03-17T18:59:18.200Z,40.60
2019-03-17T19:01:48.933Z,40.63
2019-03-17T19:04:19.735Z,39.80
2019-03-17T19:13:03.677Z,40.17
2019-03-17T19:15:33.297Z,40.17
2019-03-17T19:18:04.042Z,40.65
2019-03-17T19:20:34.708Z,39.92
2019-03-17T19:23:07.002Z,40.12
2019-03-17T19:25:37.797Z,40.45
2019-03-17T19:28:09.246Z,40.70
2019-03-17T19:30:40.073Z,41.23
2019-03-17T19:33:11.113Z,40.55
2019-03-17T19:35:41.839Z,41.60
2019-03-17T19:41:04.402Z,42.17
2019-03-17T19:43:35.290Z,41.42
2019-03-17T19:46:05.951Z,40.48
2019-03-17T19:48:36.690Z,40.98
2019-03-17T19:51:07.479Z,41.90
2019-03-17T19:53:38.149Z,42.38
2019-03-17T19:56:08.862Z,42.67
2019-03-17T19:58:40.702Z,42.65
2019-03-17T20:01:11.410Z,42.40
2019-03-17T20:03:42.035Z,42.85
2019-03-17T20:06:12.856Z,42.60
2019-03-17T20:08:43.599Z,41.85
2019-03-17T20:11:14.634Z,42.78
2019-03-17T20:13:45.529Z,42.70
2019-03-17T20:16:16.102Z,41.75
2019-03-17T20:18:46.823Z,42.15
2019-03-17T20:21:17.623Z,42.25
2019-03-17T20:26:40.602Z,41.68
2019-03-17T20:29:11.289Z,44.25
2019-03-17T20:31:41.928Z,42.48
2019-03-17T20:34:13.257Z,42.23
2019-03-17T20:36:44.138Z,42.80
2019-03-17T20:39:14.873Z,43.17
2019-03-17T20:41:45.568Z,42.62
2019-03-17T20:44:18.022Z,43.35
2019-03-17T20:46:49.185Z,42.15
2019-03-17T20:49:19.943Z,43.92
2019-03-17T20:51:50.665Z,44.27
2019-03-17T20:54:21.438Z,43.65
2019-03-17T20:56:52.136Z,43.75
2019-03-17T20:59:22.952Z,43.78
2019-03-17T21:01:54.656Z,43.30
2019-03-17T21:07:14.362Z,42.08
2019-03-17T21:09:47.765Z,45.43
2019-03-17T21:12:18.934Z,45.28
2019-03-17T21:14:49.598Z,44.83
2019-03-17T21:17:20.324Z,44.23
2019-03-17T21:19:51.214Z,43.02
2019-03-17T21:22:21.884Z,43.20
2019-03-17T21:24:52.459Z,43.87
2019-03-17T21:27:23.250Z,43.35
2019-03-17T21:29:53.966Z,43.50
2019-03-17T21:32:25.685Z,44.45
2019-03-17T21:35:00.426Z,44.75
2019-03-17T21:37:32.872Z,44.33
2019-03-17T21:40:23.510Z,44.85
2019-03-17T21:42:54.206Z,44.27
2019-03-17T21:45:27.301Z,45.90
2019-03-17T21:47:57.222Z,44.35
2019-03-17T21:50:27.772Z,43.95
2019-03-17T21:52:58.417Z,44.95
2019-03-17T21:55:29.514Z,45.35
2019-03-17T21:58:07.772Z,45.08
2019-03-17T22:00:32.542Z,46.40
2019-03-17T22:03:03.212Z,45.78
2019-03-17T22:05:33.943Z,45.48
2019-03-17T22:08:04.759Z,44.18
2019-03-17T22:10:35.494Z,46.10
2019-03-17T22:13:06.423Z,46.33
2019-03-17T22:15:37.414Z,46.20
2019-03-17T22:18:08.202Z,45.43
2019-03-17T22:20:38.906Z,46.40
2019-03-17T22:23:09.830Z,47.43
2019-03-17T22:25:40.582Z,47.43
2019-03-17T22:28:11.294Z,45.45
2019-03-17T22:30:42.285Z,46.70
2019-03-17T22:33:13.073Z,45.95
2019-03-17T22:35:43.803Z,47.60
2019-03-17T22:38:14.991Z,44.25
2019-03-17T22:40:45.676Z,46.15
2019-03-17T22:43:16.381Z,46.25
2019-03-17T22:45:47.280Z,46.58
2019-03-17T22:48:18.614Z,45.78
2019-03-17T22:50:49.245Z,45.60
2019-03-17T22:53:20.706Z,45.20
2019-03-17T22:55:51.396Z,44.75
2019-03-17T22:58:21.933Z,45.03
2019-03-17T23:00:53.288Z,44.83
2019-03-17T23:03:26.830Z,46.77
2019-03-17T23:06:02.483Z,45.45
2019-03-17T23:08:33.327Z,46.30
2019-03-17T23:11:04.231Z,46.65
2019-03-17T23:13:43.754Z,47.17
2019-03-17T23:16:14.455Z,44.73
2019-03-17T23:18:45.193Z,46.02
2019-03-17T23:21:15.652Z,44.40
2019-03-17T23:23:46.326Z,45.80
2019-03-17T23:26:17.174Z,44.98
2019-03-17T23:31:40.542Z,45.63
2019-03-17T23:34:11.162Z,45.83
2019-03-17T23:36:41.815Z,46.83
2019-03-17T23:39:13.639Z,43.92
2019-03-17T23:41:44.264Z,45.50
2019-03-17T23:48:12.101Z,45.67
2019-03-17T23:55:01.142Z,45.43
